Hinckley, MN

9:59 AM CDT on September 15, 2019 (GMT -0500)
Hinckley

Weather History for K04W - August, 2019

Change the Weather History Date:

Friday, August 23, 2019

  Actual Average (KJMR) Record (KJMR)
Temperature  
Mean Temperature 58 °F -  
Max Temperature 73 °F 76 °F 95 °F (1947)
Min Temperature 44 °F 50 °F 27 °F (1987)
Degree Days  
Heating Degree Days 6    
Growing Degree Days 8 (Base 50)    
Moisture  
Dew Point 52 °F    
Average Humidity 81    
Maximum Humidity 100    
Minimum Humidity 53    
Precipitation  
Precipitation 0.00 in - - ()
Sea Level Pressure  
Sea Level Pressure 30.23 in    
Wind  
Wind Speed 1 mph (ESE)    
Max Wind Speed 10 mph    
Max Gust Speed -    
Visibility 10 miles    
Events      
Averages and records for this station are not official NWS values.
T = Trace of Precipitation, MM = Missing Value Source: NWS Daily Summary

Daily Weather History Graph

Daily Weather History Graph

Search for Another Location

Airport or City:

Astronomy

Aug. 23, 2019 Rise Set
Actual Time 6:20 AM CDT 8:06 PM CDT
Civil Twilight 5:49 AM CDT 8:38 PM CDT
Nautical Twilight 5:10 AM CDT 9:17 PM CDT
Astronomical Twilight 4:27 AM CDT 9:59 PM CDT
Moon No Moon Rise 2:23 PM CDT (8/23)
Length of Visible Light 14h 49m
Length of Day
13h 45m
Waning Gibbous, 49% of the Moon is Illuminated
Aug 23
Waning Gibbous
Aug 30
New
Sep 5
First Quarter
Sep 13
Full
Sep 21
Last Quarter

Hourly Weather History & Observations

Time (CDT) Temp. Dew Point Humidity Pressure Visibility Wind Dir Wind Speed Gust Speed Precip Events Conditions
12:15 AM 51.8 °F 50.0 °F 94% 30.18 in 10.0 mi Calm Calm - N/A   Clear
12:16 AM 51.8 °F 50.0 °F 94% 30.18 in 10.0 mi Calm Calm - N/A   Clear
12:39 AM 51.8 °F 50.0 °F 94% 30.18 in 10.0 mi Calm Calm - N/A   Clear
12:56 AM 51.8 °F 50.0 °F 94% 30.18 in 10.0 mi Calm Calm - N/A   Clear
1:16 AM 50.0 °F 50.0 °F 100% 30.18 in 10.0 mi Calm Calm - N/A   Clear
1:35 AM 46.4 °F 46.4 °F 100% 30.18 in 10.0 mi Calm Calm - N/A   Clear
1:36 AM 46.4 °F 46.4 °F 100% 30.18 in 10.0 mi Calm Calm - N/A   Clear
1:55 AM 48.2 °F 48.2 °F 100% 30.18 in 10.0 mi Calm Calm - N/A   Clear
2:17 AM 50.0 °F 48.2 °F 94% 30.18 in 10.0 mi Calm Calm - N/A   Clear
2:35 AM 48.2 °F 48.2 °F 100% 30.18 in 10.0 mi Calm Calm - N/A   Clear
2:55 AM 46.4 °F 46.4 °F 100% 30.18 in 10.0 mi Calm Calm - N/A   Clear
2:56 AM 46.4 °F 46.4 °F 100% 30.19 in 10.0 mi Calm Calm - N/A   Clear
3:15 AM 48.2 °F 48.2 °F 100% 30.19 in 10.0 mi Calm Calm - N/A   Clear
3:16 AM 48.2 °F 48.2 °F 100% 30.19 in 10.0 mi Calm Calm - N/A   Clear
3:38 AM 46.4 °F 46.4 °F 100% 30.19 in 10.0 mi Calm Calm - N/A   Clear
3:56 AM 46.4 °F 46.4 °F 100% 30.20 in 10.0 mi Calm Calm - N/A   Clear
4:16 AM 48.2 °F 48.2 °F 100% 30.20 in 10.0 mi Calm Calm - N/A   Clear
4:35 AM 44.6 °F 44.6 °F 100% 30.21 in 10.0 mi Calm Calm - N/A   Clear
4:36 AM 44.6 °F 44.6 °F 100% 30.21 in 10.0 mi Calm Calm - N/A   Clear
4:55 AM 46.4 °F 46.4 °F 100% 30.21 in 10.0 mi Calm Calm - N/A   Clear
4:59 AM 46.4 °F 46.4 °F 100% 30.21 in 10.0 mi Calm Calm - N/A   Clear
5:17 AM 46.4 °F 46.4 °F 100% 30.22 in 10.0 mi Calm Calm - N/A   Clear
5:35 AM 44.6 °F 44.6 °F 100% 30.22 in 10.0 mi Calm Calm - N/A   Clear
5:55 AM 44.6 °F 44.6 °F 100% 30.23 in 10.0 mi Calm Calm - N/A   Clear
5:56 AM 44.6 °F 44.6 °F 100% 30.23 in 10.0 mi Calm Calm - N/A   Clear
6:15 AM 44.6 °F 44.6 °F 100% 30.24 in 10.0 mi Calm Calm - N/A   Clear
6:16 AM 44.6 °F 44.6 °F 100% 30.24 in 10.0 mi Calm Calm - N/A   Clear
6:39 AM 44.6 °F 44.6 °F 100% 30.24 in 10.0 mi Calm Calm - N/A   Clear
6:56 AM 46.4 °F 46.4 °F 100% 30.24 in 10.0 mi Calm Calm - N/A   Clear
7:15 AM 48.2 °F 48.2 °F 100% 30.25 in 10.0 mi Calm Calm - N/A   Clear
7:16 AM 48.2 °F 48.2 °F 100% 30.25 in 10.0 mi Calm Calm - N/A   Clear
7:35 AM 50.0 °F 50.0 °F 100% 30.25 in 10.0 mi Calm Calm - N/A   Clear
7:36 AM 50.0 °F 50.0 °F 100% 30.25 in 10.0 mi Calm Calm - N/A   Clear
7:55 AM 51.8 °F 51.8 °F 100% 30.25 in 10.0 mi Calm Calm - N/A   Clear
8:17 AM 53.6 °F 51.8 °F 94% 30.26 in 10.0 mi Calm Calm - N/A   Clear
8:35 AM 55.4 °F 51.8 °F 88% 30.26 in 10.0 mi Calm Calm - N/A   Clear
8:55 AM 59.0 °F 51.8 °F 77% 30.25 in 10.0 mi Calm Calm - N/A   Clear
8:56 AM 59.0 °F 51.8 °F 77% 30.25 in 10.0 mi Calm Calm - N/A   Clear
9:15 AM 59.0 °F 53.6 °F 82% 30.26 in 10.0 mi Calm Calm - N/A   Clear
9:16 AM 59.0 °F 53.6 °F 82% 30.26 in 10.0 mi Calm Calm - N/A   Clear
9:39 AM 62.6 °F 53.6 °F 72% 30.25 in 10.0 mi Calm Calm - N/A   Clear
9:56 AM 62.6 °F 53.6 °F 72% 30.25 in 10.0 mi Calm Calm - N/A   Clear
10:35 AM 64.4 °F 53.6 °F 68% 30.27 in 10.0 mi Calm Calm - N/A   Clear
10:36 AM 64.4 °F 53.6 °F 68% 30.27 in 10.0 mi Calm Calm - N/A   Clear
10:55 AM 64.4 °F 55.4 °F 73% 30.25 in 10.0 mi East 4.6 mph - N/A   Clear
10:59 AM 64.4 °F 55.4 °F 73% 30.25 in 10.0 mi Calm Calm - N/A   Clear
11:16 AM 68.0 °F 55.4 °F 64% 30.25 in 10.0 mi Calm Calm - N/A   Clear
11:36 AM 68.0 °F 53.6 °F 60% 30.26 in 10.0 mi East 4.6 mph - N/A   Scattered Clouds
11:55 AM 68.0 °F 55.4 °F 64% 30.26 in 10.0 mi Calm Calm - N/A   Scattered Clouds
11:56 AM 68.0 °F 55.4 °F 64% 30.26 in 10.0 mi Calm Calm - N/A   Mostly Cloudy
12:15 PM 69.8 °F 55.4 °F 60% 30.25 in 10.0 mi East 10.4 mph - N/A   Scattered Clouds
12:37 PM 69.8 °F 55.4 °F 60% 30.24 in 10.0 mi Calm Calm - N/A   Scattered Clouds
12:55 PM 69.8 °F 53.6 °F 56% 30.24 in 10.0 mi Calm Calm - N/A   Scattered Clouds
12:56 PM 69.8 °F 53.6 °F 56% 30.24 in 10.0 mi Calm Calm - N/A   Scattered Clouds
1:16 PM 69.8 °F 55.4 °F 60% 30.24 in 10.0 mi East 3.5 mph - N/A   Mostly Cloudy
1:38 PM 69.8 °F 55.4 °F 60% 30.23 in 10.0 mi ESE 5.8 mph - N/A   Overcast
1:57 PM 71.6 °F 53.6 °F 53% 30.23 in 10.0 mi ESE 5.8 mph - N/A   Mostly Cloudy
2:16 PM 69.8 °F 55.4 °F 60% 30.23 in 10.0 mi East 9.2 mph - N/A   Mostly Cloudy
2:35 PM 71.6 °F 55.4 °F 57% 30.23 in 10.0 mi East 9.2 mph - N/A   Mostly Cloudy
2:36 PM 71.6 °F 55.4 °F 57% 30.23 in 10.0 mi East 8.1 mph - N/A   Mostly Cloudy
2:55 PM 71.6 °F 55.4 °F 57% 30.23 in 10.0 mi SE 8.1 mph - N/A   Overcast
2:59 PM 69.8 °F 53.6 °F 56% 30.23 in 10.0 mi SE 5.8 mph - N/A   Mostly Cloudy
3:17 PM 71.6 °F 53.6 °F 53% 30.23 in 10.0 mi ESE 6.9 mph - N/A   Mostly Cloudy
3:36 PM 71.6 °F 55.4 °F 57% 30.22 in 10.0 mi ESE 8.1 mph - N/A   Mostly Cloudy
3:55 PM 71.6 °F 55.4 °F 57% 30.23 in 10.0 mi East 6.9 mph - N/A   Overcast
3:56 PM 71.6 °F 55.4 °F 57% 30.22 in 10.0 mi East 6.9 mph - N/A   Overcast
4:15 PM 69.8 °F 55.4 °F 60% 30.23 in 10.0 mi ESE 6.9 mph - N/A   Mostly Cloudy
4:19 PM 71.6 °F 55.4 °F 57% 30.22 in 10.0 mi ESE 4.6 mph - N/A   Overcast
4:38 PM 71.6 °F 53.6 °F 53% 30.22 in 10.0 mi SE 5.8 mph - N/A   Mostly Cloudy
4:55 PM 73.4 °F 55.4 °F 53% 30.22 in 10.0 mi ESE 8.1 mph - N/A   Scattered Clouds
5:15 PM 71.6 °F 55.4 °F 57% 30.22 in 10.0 mi ESE 5.8 mph - N/A   Mostly Cloudy
5:16 PM 71.6 °F 55.4 °F 57% 30.22 in 10.0 mi East 5.8 mph - N/A   Mostly Cloudy
5:35 PM 71.6 °F 55.4 °F 57% 30.22 in 10.0 mi SE 8.1 mph - N/A   Mostly Cloudy
5:36 PM 71.6 °F 55.4 °F 57% 30.22 in 10.0 mi SE 8.1 mph - N/A   Mostly Cloudy
5:58 PM 69.8 °F 55.4 °F 60% 30.22 in 10.0 mi SSE 4.6 mph - N/A   Mostly Cloudy
6:16 PM 71.6 °F 55.4 °F 57% 30.22 in 10.0 mi ESE 3.5 mph - N/A   Mostly Cloudy
6:35 PM 71.6 °F 55.4 °F 57% 30.22 in 10.0 mi ESE 6.9 mph - N/A   Mostly Cloudy
6:55 PM 69.8 °F 55.4 °F 60% 30.21 in 10.0 mi East 4.6 mph - N/A   Scattered Clouds
6:56 PM 69.8 °F 55.4 °F 60% 30.21 in 10.0 mi ESE 3.5 mph - N/A   Scattered Clouds
7:15 PM 69.8 °F 57.2 °F 64% 30.21 in 10.0 mi East 4.6 mph - N/A   Clear
7:37 PM 68.0 °F 55.4 °F 64% 30.21 in 10.0 mi East 4.6 mph - N/A   Clear
8:15 PM 62.6 °F 57.2 °F 82% 30.21 in 10.0 mi Calm Calm - N/A   Clear
8:16 PM 62.6 °F 57.2 °F 82% 30.21 in 10.0 mi Calm Calm - N/A   Clear
8:35 PM 60.8 °F 57.2 °F 88% 30.22 in 10.0 mi Calm Calm - N/A   Clear
8:39 PM 60.8 °F 57.2 °F 88% 30.22 in 10.0 mi Calm Calm - N/A   Clear
8:58 PM 57.2 °F 55.4 °F 94% 30.23 in 10.0 mi Calm Calm - N/A   Clear
9:15 PM 57.2 °F 55.4 °F 94% 30.23 in 10.0 mi Calm Calm - N/A   Clear
9:35 PM 55.4 °F 55.4 °F 100% 30.23 in 10.0 mi Calm Calm - N/A   Clear
9:36 PM 55.4 °F 55.4 °F 100% 30.23 in 10.0 mi Calm Calm - N/A   Clear
9:55 PM 55.4 °F 53.6 °F 94% 30.23 in 10.0 mi Calm Calm - N/A   Clear
10:00 PM 53.6 °F 53.6 °F 100% 30.23 in 10.0 mi Calm Calm - N/A   Clear
10:17 PM 53.6 °F 53.6 °F 100% 30.23 in 10.0 mi Calm Calm - N/A   Clear
10:36 PM 53.6 °F 53.6 °F 100% 30.23 in 10.0 mi Calm Calm - N/A   Clear
10:55 PM 53.6 °F 53.6 °F 100% 30.23 in 10.0 mi Calm Calm - N/A   Clear
10:56 PM 53.6 °F 53.6 °F 100% 30.23 in 10.0 mi Calm Calm - N/A   Clear
11:15 PM 53.6 °F 53.6 °F 100% 30.23 in 10.0 mi Calm Calm - N/A   Clear
11:16 PM 53.6 °F 53.6 °F 100% 30.23 in 10.0 mi Calm Calm - N/A   Clear
11:38 PM 53.6 °F 53.6 °F 100% 30.23 in 10.0 mi Calm Calm - N/A   Clear
11:56 PM 53.6 °F 53.6 °F 100% 30.24 in 10.0 mi Calm Calm - N/A   Clear